Time;durP1;ratioP1;P1;durP2;ratioP2;P2;SDS_P1;SDS_P2;PMS_P1;PMS_P2;Temp;Humidity;BMP_temperature;BMP_pressure;BME280_temperature;BME280_humidity;BME280_pressure;Samples;Min_cycle;Max_cycle;Signal;HPM_P1;HPM_P2
2023/03/08 00:02:24;;;;;;;0.03;0.03;;;;;;;7.46;44.17;99107.84;7347350;19;20022;-58
2023/03/08 00:04:54;;;;;;;0.00;0.00;;;;;;;7.44;44.28;99112.22;7353160;19;20913;-57
2023/03/08 00:07:19;;;;;;;0.00;0.00;;;;;;;7.41;44.22;99109.75;7354890;19;20029;-57
2023/03/08 00:09:45;;;;;;;0.00;0.00;;;;;;;7.40;44.75;99102.00;7358178;19;20367;-57
2023/03/08 00:12:10;;;;;;;0.00;0.00;;;;;;;7.37;44.25;99100.38;7354812;19;20014;-57
2023/03/08 00:14:36;;;;;;;0.00;0.00;;;;;;;7.36;44.33;99088.31;7358949;19;20014;-57
2023/03/08 00:17:01;;;;;;;0.00;0.00;;;;;;;7.35;44.57;99090.94;7359000;19;20036;-57
2023/03/08 00:19:27;;;;;;;0.00;0.00;;;;;;;7.34;44.59;99079.69;7356350;19;20010;-58
2023/03/08 00:21:52;;;;;;;0.00;0.00;;;;;;;7.20;44.69;99045.63;7353420;19;20010;-57
2023/03/08 00:24:18;;;;;;;0.00;0.00;;;;;;;7.23;44.74;99055.88;7356991;19;20015;-57
2023/03/08 00:26:44;;;;;;;0.00;0.00;;;;;;;7.27;44.93;99070.44;7358917;19;20025;-58
2023/03/08 00:29:10;;;;;;;0.00;0.00;;;;;;;7.26;45.18;99067.00;7360409;19;20006;-57
2023/03/08 00:31:35;;;;;;;0.00;0.00;;;;;;;7.26;44.67;99068.75;7357297;19;20014;-57
2023/03/08 00:34:01;;;;;;;0.00;0.00;;;;;;;7.25;44.69;99072.25;7355834;19;20840;-58
2023/03/08 00:36:26;;;;;;;0.03;0.03;;;;;;;7.25;44.87;99059.28;7359411;19;20026;-57
2023/03/08 00:38:51;;;;;;;0.00;0.00;;;;;;;7.24;45.21;99057.56;7360068;19;20007;-57
2023/03/08 00:41:17;;;;;;;0.05;0.05;;;;;;;7.23;44.89;99053.28;7357709;19;20015;-58
2023/03/08 00:43:43;;;;;;;0.10;0.10;;;;;;;7.25;44.93;99054.09;7356304;19;20500;-58
2023/03/08 00:46:10;;;;;;;0.00;0.00;;;;;;;7.25;45.07;99043.72;7358804;19;20018;-57
2023/03/08 00:48:35;;;;;;;0.00;0.00;;;;;;;7.25;45.12;99036.75;7354321;19;20849;-57
2023/03/08 00:51:00;;;;;;;0.00;0.00;;;;;;;7.26;44.87;99030.66;7356556;19;20019;-57
2023/03/08 00:53:26;;;;;;;0.00;0.00;;;;;;;7.26;44.83;99027.22;7358586;19;20006;-58
2023/03/08 00:55:54;;;;;;;0.00;0.00;;;;;;;7.17;44.91;99011.97;7356136;19;20003;-57
2023/03/08 00:58:20;;;;;;;0.00;0.00;;;;;;;7.27;44.82;99021.13;7359534;19;20018;-57
2023/03/08 01:00:47;;;;;;;0.00;0.00;;;;;;;7.26;45.01;99015.09;7356155;19;20014;-58
2023/03/08 01:03:12;;;;;;;0.00;0.00;;;;;;;7.25;44.97;99010.78;7356758;19;20019;-58
2023/03/08 01:05:43;;;;;;;0.00;0.00;;;;;;;7.25;45.23;99007.34;7357689;19;21667;-58
2023/03/08 01:08:10;;;;;;;0.00;0.00;;;;;;;7.23;45.26;98999.59;7358507;19;20490;-58
2023/03/08 01:10:35;;;;;;;0.00;0.00;;;;;;;7.23;45.09;98998.75;7357786;19;22360;-58
2023/03/08 01:13:01;;;;;;;0.00;0.00;;;;;;;7.16;45.06;98981.72;7358802;19;20043;-58
2023/03/08 01:15:27;;;;;;;0.10;0.10;;;;;;;7.20;45.41;98989.34;7357721;19;20459;-57
2023/03/08 01:17:52;;;;;;;0.00;0.00;;;;;;;7.18;45.18;98982.50;7358283;19;20023;-57
2023/03/08 01:20:18;;;;;;;0.00;0.00;;;;;;;7.16;45.17;98977.38;7355087;19;20022;-58
2023/03/08 01:22:43;;;;;;;0.00;0.00;;;;;;;7.18;45.07;98977.31;7357379;19;20103;-58
2023/03/08 01:25:09;;;;;;;0.00;0.00;;;;;;;7.15;45.58;98969.66;7350422;19;22344;-57
2023/03/08 01:27:35;;;;;;;0.00;0.00;;;;;;;7.15;45.17;98970.50;7358274;19;20010;-57
2023/03/08 01:30:00;;;;;;;0.00;0.00;;;;;;;7.10;45.37;98961.19;7356315;19;21317;-57
2023/03/08 01:32:26;;;;;;;0.10;0.10;;;;;;;7.13;45.17;98959.31;7355915;19;20715;-58
2023/03/08 01:34:51;;;;;;;0.05;0.05;;;;;;;7.11;45.25;98960.28;7354438;19;20463;-57
2023/03/08 01:37:17;;;;;;;0.00;0.00;;;;;;;7.11;45.04;98955.94;7358579;19;20841;-58
2023/03/08 01:39:42;;;;;;;0.10;0.10;;;;;;;7.10;45.16;98953.41;7353970;19;20351;-57
2023/03/08 01:42:08;;;;;;;0.00;0.00;;;;;;;7.10;44.96;98958.59;7355767;19;20014;-57
2023/03/08 01:44:56;;;;;;;0.10;0.10;;;;;;;7.11;44.41;98952.50;7355447;19;20074;-57
2023/03/08 01:47:29;;;;;;;0.00;0.00;;;;;;;7.08;44.84;98945.66;7255432;19;2004383;-57
2023/03/08 01:50:02;;;;;;;0.00;0.00;;;;;;;7.05;44.92;98939.75;7357752;19;20017;-58
2023/03/08 01:52:32;;;;;;;0.00;0.00;;;;;;;7.05;44.70;98938.00;7353686;19;20034;-57
2023/03/08 01:55:02;;;;;;;0.00;0.00;;;;;;;7.03;44.67;98927.66;7353545;19;20006;-58
2023/03/08 01:57:33;;;;;;;0.00;0.00;;;;;;;7.03;44.82;98934.59;7356638;19;20010;-58
2023/03/08 02:00:04;;;;;;;0.00;0.00;;;;;;;6.90;45.00;98913.44;7354752;19;20010;-57
2023/03/08 02:02:37;;;;;;;0.00;0.00;;;;;;;7.01;44.82;98920.84;7356173;19;20019;-58
2023/03/08 02:05:02;;;;;;;0.00;0.00;;;;;;;6.99;44.63;98920.03;7355062;19;20082;-57
2023/03/08 02:07:28;;;;;;;0.00;0.00;;;;;;;6.95;44.96;98911.53;7357669;19;20092;-58
2023/03/08 02:09:53;;;;;;;0.05;0.05;;;;;;;6.90;45.08;98900.47;7353577;19;20010;-57
2023/03/08 02:12:20;;;;;;;0.00;0.00;;;;;;;6.96;45.10;98907.19;7355673;19;20022;-57
2023/03/08 02:14:46;;;;;;;0.00;0.00;;;;;;;6.95;45.20;98895.97;7353848;19;20042;-57
2023/03/08 02:17:12;;;;;;;0.00;0.00;;;;;;;6.88;45.08;98884.09;7355127;19;22698;-57
2023/03/08 02:19:45;;;;;;;0.00;0.00;;;;;;;6.92;44.88;98885.69;7352220;19;20018;-58
2023/03/08 02:22:14;;;;;;;0.00;0.00;;;;;;;6.94;44.71;98888.22;7357214;19;20015;-57
2023/03/08 02:24:40;;;;;;;0.00;0.00;;;;;;;6.92;45.08;98888.28;7353583;19;20066;-57
2023/03/08 02:27:09;;;;;;;0.10;0.10;;;;;;;6.91;45.07;98884.00;7355625;19;20083;-57
2023/03/08 02:29:35;;;;;;;0.00;0.00;;;;;;;6.88;44.79;98878.91;7352273;19;20023;-58
2023/03/08 02:32:00;;;;;;;0.00;0.00;;;;;;;6.88;45.28;98872.88;7355452;19;20014;-57
2023/03/08 02:34:26;;;;;;;0.00;0.00;;;;;;;6.87;44.79;98866.84;7348739;19;20018;-58
2023/03/08 02:36:51;;;;;;;0.00;0.00;;;;;;;6.86;45.03;98862.56;7351433;19;20857;-58
2023/03/08 02:39:16;;;;;;;0.00;0.00;;;;;;;6.76;44.93;98845.66;7354606;19;20011;-58
2023/03/08 02:41:42;;;;;;;0.10;0.10;;;;;;;6.84;45.26;98853.97;7358280;19;20014;-58
2023/03/08 02:44:07;;;;;;;0.00;0.00;;;;;;;6.85;45.33;98852.25;7362108;19;20042;-57
2023/03/08 02:46:33;;;;;;;0.10;0.10;;;;;;;6.82;45.09;98848.00;7361050;19;20026;-57
2023/03/08 02:48:59;;;;;;;0.00;0.00;;;;;;;6.79;44.95;98842.91;7359026;19;20002;-58
2023/03/08 02:51:24;;;;;;;0.00;0.00;;;;;;;6.78;45.33;98833.47;7362951;19;20010;-57
2023/03/08 02:53:50;;;;;;;0.00;0.00;;;;;;;6.78;44.79;98827.44;7359689;19;20374;-57
2023/03/08 02:56:15;;;;;;;0.00;0.00;;;;;;;6.81;45.16;98829.91;7363245;19;20007;-57
2023/03/08 02:58:40;;;;;;;0.00;0.00;;;;;;;6.80;45.23;98823.88;7348904;19;20332;-58
2023/03/08 03:01:12;;;;;;;0.00;0.00;;;;;;;6.70;44.80;98800.03;7360958;19;20009;-58
2023/03/08 03:03:38;;;;;;;0.00;0.00;;;;;;;6.80;45.04;98820.44;7357836;19;20591;-58
2023/03/08 03:06:04;;;;;;;0.00;0.00;;;;;;;6.78;45.21;98810.09;7358257;19;21169;-57
2023/03/08 03:08:30;;;;;;;0.00;0.00;;;;;;;6.78;44.63;98810.09;7357821;19;20018;-57
2023/03/08 03:10:55;;;;;;;0.03;0.03;;;;;;;6.76;44.65;98804.16;7359769;19;20591;-57
2023/03/08 03:13:21;;;;;;;0.00;0.00;;;;;;;6.76;44.73;98804.16;7358171;19;20787;-58
2023/03/08 03:15:46;;;;;;;0.00;0.00;;;;;;;6.75;44.63;98794.69;7355698;19;21002;-58
2023/03/08 03:18:12;;;;;;;0.00;0.00;;;;;;;6.75;44.63;98794.69;7352978;19;20039;-57
2023/03/08 03:20:37;;;;;;;0.00;0.00;;;;;;;6.73;44.87;98792.13;7360545;19;20006;-57
2023/03/08 03:23:03;;;;;;;0.00;0.00;;;;;;;6.72;44.81;98792.19;7356678;19;20292;-57
2023/03/08 03:25:28;;;;;;;0.00;0.00;;;;;;;6.67;44.73;98776.78;7359861;19;20804;-58
2023/03/08 03:27:55;;;;;;;0.10;0.10;;;;;;;6.72;44.72;98784.41;7356287;19;20491;-57
2023/03/08 03:30:21;;;;;;;0.00;0.00;;;;;;;6.66;44.58;98772.50;7360588;19;20043;-58
2023/03/08 03:32:46;;;;;;;0.00;0.00;;;;;;;6.70;44.93;98774.09;7353486;19;20022;-58
2023/03/08 03:35:12;;;;;;;0.00;0.00;;;;;;;6.69;44.76;98774.13;7351030;19;20059;-57
2023/03/08 03:37:37;;;;;;;0.05;0.05;;;;;;;6.69;44.92;98768.94;7359363;19;20066;-58
2023/03/08 03:40:04;;;;;;;0.00;0.00;;;;;;;6.69;44.93;98769.81;7353105;19;20790;-58
2023/03/08 03:42:29;;;;;;;0.00;0.00;;;;;;;6.69;44.91;98774.13;7355841;19;20010;-58
2023/03/08 03:44:55;;;;;;;0.00;0.00;;;;;;;6.68;44.90;98770.69;7360113;19;20006;-58
2023/03/08 03:47:20;;;;;;;0.00;0.00;;;;;;;6.68;44.86;98762.91;7357043;19;20014;-58
2023/03/08 03:49:46;;;;;;;0.00;0.00;;;;;;;6.68;45.10;98759.47;7360697;19;20010;-58
2023/03/08 03:52:11;;;;;;;0.00;0.00;;;;;;;6.68;45.28;98754.28;7350188;19;20010;-58
2023/03/08 03:54:36;;;;;;;0.00;0.00;;;;;;;6.69;45.04;98758.56;7355677;19;20360;-57
2023/03/08 03:57:02;;;;;;;0.00;0.00;;;;;;;6.69;45.44;98755.97;7356528;19;20035;-57
2023/03/08 03:59:27;;;;;;;0.00;0.00;;;;;;;6.69;45.12;98745.59;7357916;19;20031;-57
2023/03/08 04:01:53;;;;;;;0.00;0.00;;;;;;;6.70;45.28;98744.72;7357293;19;20014;-58
2023/03/08 04:04:19;;;;;;;0.00;0.00;;;;;;;6.68;45.12;98730.94;7338453;19;20015;-57
2023/03/08 04:06:44;;;;;;;0.00;0.00;;;;;;;6.49;45.12;98705.75;7357631;19;20086;-57
2023/03/08 04:09:14;;;;;;;0.00;0.00;;;;;;;6.70;44.98;98726.56;7354870;19;20034;-57
2023/03/08 04:11:40;;;;;;;0.00;0.00;;;;;;;6.70;45.17;98731.75;7357341;19;20727;-57
2023/03/08 04:14:06;;;;;;;0.00;0.00;;;;;;;6.69;45.09;98737.81;7356079;19;20014;-59
2023/03/08 04:16:34;;;;;;;0.00;0.00;;;;;;;6.69;44.99;98727.44;7355567;19;20010;-58
2023/03/08 04:19:02;;;;;;;;;;;;;;;6.72;44.61;98727.34;7360100;19;20010;-58
2023/03/08 04:21:28;;;;;;;0.00;0.00;;;;;;;6.68;44.96;98716.22;7341870;19;19915;-58
2023/03/08 04:23:54;;;;;;;0.00;0.00;;;;;;;6.57;45.02;98696.81;7355099;19;20730;-58
2023/03/08 04:26:21;;;;;;;0.00;0.00;;;;;;;6.67;44.88;98713.72;7358968;19;20010;-58
2023/03/08 04:28:46;;;;;;;0.00;0.00;;;;;;;6.67;44.79;98708.50;7354347;19;20014;-58
2023/03/08 04:31:16;;;;;;;0.10;0.10;;;;;;;6.68;44.93;98712.78;7359024;19;20035;-57
2023/03/08 04:33:42;;;;;;;0.00;0.00;;;;;;;6.60;44.65;98691.53;7356762;19;20814;-58
2023/03/08 04:36:08;;;;;;;0.10;0.10;;;;;;;6.67;45.05;98703.34;7361192;19;21585;-58
2023/03/08 04:38:35;;;;;;;0.00;0.00;;;;;;;6.69;45.21;98706.69;7355841;19;20021;-58
2023/03/08 04:41:01;;;;;;;0.00;0.00;;;;;;;6.58;45.43;98683.78;7347760;19;20654;-58
2023/03/08 04:43:28;;;;;;;0.00;0.00;;;;;;;6.70;45.22;98700.63;7355718;19;20276;-57
2023/03/08 04:45:54;;;;;;;0.00;0.00;;;;;;;6.34;45.28;98638.09;7355905;19;20605;-57
2023/03/08 04:48:19;;;;;;;0.00;0.00;;;;;;;6.68;45.68;98692.03;7357035;19;20021;-58
2023/03/08 04:50:54;;;;;;;0.00;0.00;;;;;;;6.73;45.11;98692.72;7353234;19;20070;-58
2023/03/08 04:53:21;;;;;;;0.00;0.00;;;;;;;6.73;45.59;98697.91;7358523;19;20010;-58
2023/03/08 04:55:46;;;;;;;0.00;0.00;;;;;;;6.73;45.79;98692.72;7356782;19;20051;-57
2023/03/08 04:58:12;;;;;;;0.00;0.00;;;;;;;6.69;45.67;98692.00;7359940;19;20010;-57
2023/03/08 05:00:37;;;;;;;0.00;0.00;;;;;;;6.60;46.04;98673.38;7352889;19;20034;-57
2023/03/08 05:03:03;;;;;;;0.00;0.00;;;;;;;6.71;45.83;98690.19;7358436;19;20018;-58
2023/03/08 05:05:28;;;;;;;0.05;0.05;;;;;;;6.70;45.94;98677.28;7355058;19;20086;-58
2023/03/08 05:07:54;;;;;;;0.00;0.00;;;;;;;6.71;45.76;98685.00;7358964;19;20024;-57
2023/03/08 05:10:20;;;;;;;0.10;0.10;;;;;;;6.70;45.65;98677.28;7354612;19;20014;-58
2023/03/08 05:12:45;;;;;;;0.00;0.00;;;;;;;6.71;45.66;98677.22;7355079;19;20118;-57
2023/03/08 05:15:10;;;;;;;0.00;0.00;;;;;;;6.72;45.68;98671.13;7354852;19;20010;-57
2023/03/08 05:17:36;;;;;;;0.08;0.08;;;;;;;6.62;45.62;98653.38;7357477;19;20369;-58
2023/03/08 05:20:02;;;;;;;0.00;0.00;;;;;;;6.73;46.14;98666.78;7355140;19;20018;-57
2023/03/08 05:22:28;;;;;;;0.00;0.00;;;;;;;6.71;46.01;98669.44;7357013;19;20017;-57
2023/03/08 05:24:53;;;;;;;0.00;0.00;;;;;;;6.72;46.02;98675.47;7357073;19;20014;-58
2023/03/08 05:27:19;;;;;;;0.00;0.00;;;;;;;6.71;45.80;98668.59;7357326;19;20022;-57
2023/03/08 05:29:44;;;;;;;0.08;0.08;;;;;;;6.69;45.43;98665.19;7355452;19;20010;-57
2023/03/08 05:32:11;;;;;;;0.00;0.00;;;;;;;6.69;45.56;98666.06;7358055;19;20018;-58
2023/03/08 05:34:36;;;;;;;0.03;0.03;;;;;;;6.67;45.50;98651.47;7354771;19;20374;-58
2023/03/08 05:37:01;;;;;;;0.00;0.00;;;;;;;6.66;44.86;98654.97;7355151;19;20011;-58
2023/03/08 05:39:29;;;;;;;0.05;0.05;;;;;;;6.64;44.67;98656.75;7359131;19;20873;-58
2023/03/08 05:41:54;;;;;;;0.00;0.00;;;;;;;6.57;44.86;98650.13;7351681;19;20014;-57
2023/03/08 05:44:20;;;;;;;0.03;0.03;;;;;;;6.60;44.91;98650.03;7356107;19;20500;-58
2023/03/08 05:46:48;;;;;;;0.00;0.00;;;;;;;6.53;44.81;98640.78;7349815;19;20041;-57
2023/03/08 05:49:14;;;;;;;0.00;0.00;;;;;;;6.55;44.53;98641.59;7357011;19;20015;-57
2023/03/08 05:51:39;;;;;;;0.00;0.00;;;;;;;6.53;44.54;98643.38;7353980;19;20014;-59
2023/03/08 05:54:05;;;;;;;0.10;0.10;;;;;;;6.52;44.86;98641.69;7356894;19;20036;-57
2023/03/08 05:56:30;;;;;;;0.00;0.00;;;;;;;6.49;44.54;98637.47;7355539;19;20027;-58
2023/03/08 05:58:56;;;;;;;0.00;0.00;;;;;;;6.48;44.54;98638.38;7350224;19;20039;-58
2023/03/08 06:01:26;;;;;;;0.03;0.03;;;;;;;6.40;44.81;98628.31;7354893;19;20371;-57
2023/03/08 06:03:53;;;;;;;0.10;0.10;;;;;;;6.41;44.39;98617.03;7354611;19;20433;-58
2023/03/08 06:06:20;;;;;;;0.10;0.10;;;;;;;6.31;44.42;98613.09;7352385;19;20467;-58
2023/03/08 06:08:46;;;;;;;0.00;0.00;;;;;;;6.30;44.53;98608.84;7356257;19;20426;-57
2023/03/08 06:11:12;;;;;;;0.00;0.00;;;;;;;6.35;44.61;98619.88;7354168;19;20019;-58
2023/03/08 06:13:37;;;;;;;0.00;0.00;;;;;;;6.33;44.51;98632.03;7355065;19;20608;-58
2023/03/08 06:16:03;;;;;;;0.00;0.00;;;;;;;6.31;44.42;98628.66;7354037;19;20506;-58
2023/03/08 06:18:29;;;;;;;0.00;0.00;;;;;;;6.28;44.51;98623.59;7361863;19;20523;-58
2023/03/08 06:21:00;;;;;;;0.10;0.10;;;;;;;6.29;44.87;98625.28;7361018;19;20092;-58
2023/03/08 06:23:27;;;;;;;0.00;0.00;;;;;;;6.25;44.85;98618.53;7354783;19;20044;-57
2023/03/08 06:25:53;;;;;;;0.00;0.00;;;;;;;6.22;44.49;98622.06;7359654;19;20014;-58
2023/03/08 06:28:19;;;;;;;0.08;0.08;;;;;;;6.21;44.68;98616.97;7359087;19;20022;-58
2023/03/08 06:30:48;;;;;;;0.00;0.00;;;;;;;6.21;44.31;98622.13;7364245;19;20010;-57
2023/03/08 06:33:13;;;;;;;0.00;0.00;;;;;;;6.20;44.13;98617.88;7360486;19;20010;-57
2023/03/08 06:35:39;;;;;;;0.00;0.00;;;;;;;6.18;44.42;98622.25;7362717;19;20014;-57
2023/03/08 06:38:05;;;;;;;0.00;0.00;;;;;;;5.74;44.55;98549.63;7359318;19;20039;-57
2023/03/08 06:40:30;;;;;;;0.00;0.00;;;;;;;6.15;44.72;98627.56;7363606;19;20007;-57
2023/03/08 06:42:55;;;;;;;0.00;0.00;;;;;;;6.14;44.57;98624.13;7357233;19;20006;-59
2023/03/08 06:45:21;;;;;;;0.00;0.00;;;;;;;6.14;44.36;98623.28;7361746;19;20820;-58
2023/03/08 06:47:46;;;;;;;0.00;0.00;;;;;;;6.13;44.36;98624.16;7361920;19;20018;-58
2023/03/08 06:50:12;;;;;;;0.00;0.00;;;;;;;6.13;44.52;98618.97;7360658;19;20010;-58
2023/03/08 06:52:37;;;;;;;0.00;0.00;;;;;;;6.12;44.53;98618.16;7359531;19;20018;-58
2023/03/08 06:55:03;;;;;;;0.00;0.00;;;;;;;6.03;44.30;98596.91;7359690;19;20598;-58
2023/03/08 06:57:29;;;;;;;0.00;0.00;;;;;;;6.11;44.54;98611.28;7357981;19;20006;-57
2023/03/08 06:59:54;;;;;;;0.00;0.00;;;;;;;6.11;44.54;98615.63;7350945;19;20121;-57
2023/03/08 07:02:20;;;;;;;0.05;0.05;;;;;;;6.09;44.65;98607.91;7356321;19;20006;-58
2023/03/08 07:04:45;;;;;;;0.00;0.00;;;;;;;6.10;44.53;98608.75;7357965;19;20365;-58
2023/03/08 07:07:10;;;;;;;0.00;0.00;;;;;;;6.10;44.48;98608.75;7358380;19;20817;-58
2023/03/08 07:09:36;;;;;;;0.00;0.00;;;;;;;6.10;44.58;98619.13;7355980;19;20014;-58
2023/03/08 07:12:01;;;;;;;0.00;0.00;;;;;;;6.10;44.98;98613.94;7358090;19;20059;-57
2023/03/08 07:14:27;;;;;;;0.00;0.00;;;;;;;6.07;44.71;98612.28;7355126;19;20006;-58
2023/03/08 07:16:52;;;;;;;0.00;0.00;;;;;;;6.09;44.26;98609.66;7357915;19;20166;-57
2023/03/08 07:19:17;;;;;;;0.10;0.10;;;;;;;6.07;44.57;98608.84;7357152;19;20442;-58
2023/03/08 07:21:43;;;;;;;0.10;0.10;;;;;;;6.07;44.39;98603.69;7355829;19;20014;-58
2023/03/08 07:24:09;;;;;;;0.00;0.00;;;;;;;6.09;44.38;98609.66;7358393;19;20015;-57
2023/03/08 07:26:35;;;;;;;0.00;0.00;;;;;;;6.06;44.83;98608.00;7354389;19;20070;-58
2023/03/08 07:29:00;;;;;;;0.00;0.00;;;;;;;6.08;44.85;98616.56;7358466;19;20010;-58
2023/03/08 07:31:27;;;;;;;0.03;0.03;;;;;;;6.10;44.89;98619.13;7356888;19;20015;-58
2023/03/08 07:33:53;;;;;;;0.10;0.10;;;;;;;6.11;45.20;98618.22;7351655;19;20007;-58
2023/03/08 07:36:19;;;;;;;0.00;0.00;;;;;;;6.00;44.81;98594.47;7360519;19;21534;-58
2023/03/08 07:38:45;;;;;;;0.00;0.00;;;;;;;6.10;44.77;98616.53;7355356;19;20006;-57
2023/03/08 07:41:11;;;;;;;0.00;0.00;;;;;;;6.09;45.25;98612.25;7357950;19;20053;-57
2023/03/08 07:43:36;;;;;;;0.00;0.00;;;;;;;6.13;45.11;98616.41;7351505;19;20577;-58
2023/03/08 07:46:03;;;;;;;0.10;0.10;;;;;;;6.14;45.08;98623.28;7360690;19;20769;-58
2023/03/08 07:48:29;;;;;;;0.10;0.10;;;;;;;6.14;45.18;98625.88;7357446;19;20004;-58
2023/03/08 07:51:01;;;;;;;0.00;0.00;;;;;;;6.15;45.02;98617.19;7343642;19;20010;-58
2023/03/08 07:53:26;;;;;;;0.00;0.00;;;;;;;6.13;45.15;98624.16;7356709;19;20102;-57
2023/03/08 07:55:51;;;;;;;0.00;0.00;;;;;;;6.14;45.41;98631.06;7358687;19;20125;-59
2023/03/08 07:58:17;;;;;;;0.00;0.00;;;;;;;6.11;45.52;98631.16;7358584;19;20682;-59
2023/03/08 08:00:42;;;;;;;0.00;0.00;;;;;;;6.14;45.66;98646.63;7359591;19;20015;-59
2023/03/08 08:03:08;;;;;;;0.00;0.00;;;;;;;6.14;45.97;98639.69;7355551;19;20022;-59
2023/03/08 08:05:35;;;;;;;0.00;0.00;;;;;;;6.11;48.09;98641.53;7359988;19;20498;-60
2023/03/08 08:08:00;;;;;;;0.08;0.08;;;;;;;6.17;49.40;98662.03;7354447;19;20028;-60
2023/03/08 08:10:25;;;;;;;0.10;0.10;;;;;;;6.15;50.48;98669.03;7359322;19;20010;-60
2023/03/08 08:12:51;;;;;;;0.00;0.00;;;;;;;6.15;50.84;98658.66;7355136;19;20018;-59
2023/03/08 08:15:16;;;;;;;0.10;0.10;;;;;;;6.12;50.58;98663.94;7356362;19;20003;-59
2023/03/08 08:17:42;;;;;;;0.00;0.00;;;;;;;5.60;51.67;98582.94;7358671;19;20010;-60
2023/03/08 08:20:08;;;;;;;0.10;0.10;;;;;;;6.06;52.61;98653.81;7357259;19;20010;-60
2023/03/08 08:22:35;;;;;;;0.10;0.10;;;;;;;6.00;52.45;98649.72;7356906;19;20828;-59
2023/03/08 08:25:02;;;;;;;0.00;0.00;;;;;;;5.98;53.66;98652.38;7356083;19;20031;-60
2023/03/08 08:27:27;;;;;;;0.10;0.10;;;;;;;5.86;51.38;98626.03;7352214;19;20014;-59
2023/03/08 08:29:52;;;;;;;0.00;0.00;;;;;;;5.97;54.10;98640.28;7357517;19;20780;-60
2023/03/08 08:32:18;;;;;;;0.10;0.10;;;;;;;5.97;53.82;98645.47;7354001;19;20030;-59
2023/03/08 08:34:43;;;;;;;0.00;0.00;;;;;;;6.00;52.97;98638.50;7355178;19;20073;-60
2023/03/08 08:37:09;;;;;;;0.00;0.00;;;;;;;6.01;53.15;98628.06;7357509;19;20015;-59
2023/03/08 08:39:34;;;;;;;0.00;0.00;;;;;;;6.04;53.59;98624.53;7355126;19;20018;-60
2023/03/08 08:42:00;;;;;;;0.03;0.03;;;;;;;6.09;52.77;98622.63;7360078;19;20045;-60
2023/03/08 08:44:25;;;;;;;0.00;0.00;;;;;;;6.13;53.02;98624.16;7358773;19;21987;-59
2023/03/08 08:46:50;;;;;;;0.00;0.00;;;;;;;6.17;52.27;98625.75;7353699;19;20014;-59
2023/03/08 08:49:16;;;;;;;0.00;0.00;;;;;;;6.23;52.36;98628.09;7347284;19;20014;-60
2023/03/08 08:51:41;;;;;;;0.00;0.00;;;;;;;6.28;52.92;98626.16;7349079;19;20002;-59
2023/03/08 08:54:07;;;;;;;0.05;0.05;;;;;;;6.34;52.70;98628.56;7353088;19;20014;-60
2023/03/08 08:56:33;;;;;;;0.08;0.08;;;;;;;6.40;51.20;98628.31;7353526;19;20010;-59
2023/03/08 08:59:00;;;;;;;0.10;0.10;;;;;;;6.48;51.82;98621.06;7354923;19;20014;-60
2023/03/08 09:01:32;;;;;;;0.10;0.10;;;;;;;6.56;51.57;98630.31;7357014;19;20492;-59
2023/03/08 09:03:58;;;;;;;0.10;0.10;;;;;;;6.39;52.01;98599.88;7358221;19;20006;-60
2023/03/08 09:06:24;;;;;;;0.10;0.10;;;;;;;6.67;50.12;98625.53;7355460;19;20027;-59
2023/03/08 09:08:53;;;;;;;0.00;0.00;;;;;;;6.72;50.31;98623.59;7354768;19;20511;-59
2023/03/08 09:11:19;;;;;;;0.05;0.05;;;;;;;6.77;50.73;98621.66;7351891;19;20018;-60
2023/03/08 09:13:44;;;;;;;0.00;0.00;;;;;;;6.83;49.47;98616.22;7355398;19;20353;-60
2023/03/08 09:16:26;;;;;;;0.00;0.00;;;;;;;6.93;49.30;98611.50;7354028;19;20014;-60
2023/03/08 09:18:52;;;;;;;0.00;0.00;;;;;;;6.97;50.61;98623.44;7351094;19;20023;-60
2023/03/08 09:21:18;;;;;;;0.00;0.00;;;;;;;6.97;50.15;98606.13;7357175;19;20798;-60
2023/03/08 09:23:43;;;;;;;0.00;0.00;;;;;;;7.15;49.20;98606.28;7355167;19;20019;-59
2023/03/08 09:26:09;;;;;;;0.00;0.00;;;;;;;7.26;48.60;98601.47;7356769;19;20010;-59
2023/03/08 09:28:35;;;;;;;0.00;0.00;;;;;;;7.35;47.87;98608.84;7356643;19;20031;-59
2023/03/08 09:31:10;;;;;;;0.10;0.10;;;;;;;7.38;47.88;98593.13;7354103;19;20046;-60
2023/03/08 09:33:37;;;;;;;0.10;0.10;;;;;;;7.64;47.83;98609.31;7358846;19;20028;-60
2023/03/08 09:36:02;;;;;;;0.00;0.00;;;;;;;7.84;48.26;98606.69;7354558;19;20048;-58
2023/03/08 09:38:28;;;;;;;0.00;0.00;;;;;;;8.06;47.79;98591.81;7356401;19;20026;-60
2023/03/08 09:41:16;;;;;;;0.00;0.00;;;;;;;8.42;48.15;98598.81;7355409;19;20051;-60
2023/03/08 09:44:15;;;;;;;0.00;0.00;;;;;;;8.76;48.08;98591.97;7254035;19;2004564;-60
2023/03/08 09:46:45;;;;;;;0.00;0.00;;;;;;;9.01;46.02;98576.81;7257963;19;2004388;-59
2023/03/08 09:49:21;;;;;;;0.00;0.00;;;;;;;9.38;45.44;98592.34;7353635;19;20026;-59
2023/03/08 09:52:07;;;;;;;0.00;0.00;;;;;;;9.66;45.59;98589.16;7360361;19;20039;-60
2023/03/08 09:54:37;;;;;;;0.00;0.00;;;;;;;9.92;44.04;98579.94;7363691;19;20553;-60
2023/03/08 09:57:07;;;;;;;0.00;0.00;;;;;;;10.14;44.54;98594.34;7362068;19;20030;-60
2023/03/08 09:59:41;;;;;;;0.00;0.00;;;;;;;10.44;43.75;98575.38;7364588;19;22456;-60
2023/03/08 10:02:22;;;;;;;0.00;0.00;;;;;;;10.63;43.27;98581.19;7360071;19;20021;-60
2023/03/08 10:04:54;;;;;;;0.00;0.00;;;;;;;10.83;42.33;98581.84;7361424;19;20053;-60
2023/03/08 10:08:01;;;;;;;0.00;0.00;;;;;;;11.14;44.12;98584.34;7357400;19;20035;-60
2023/03/08 10:10:35;;;;;;;0.10;0.10;;;;;;;11.29;41.21;98579.16;7257321;19;2004189;-60
2023/03/08 10:13:06;;;;;;;0.10;0.10;;;;;;;11.43;41.34;98584.38;7359707;19;20239;-60
2023/03/08 10:15:38;;;;;;;0.10;0.10;;;;;;;11.55;40.95;98578.41;7365011;19;20023;-60
2023/03/08 10:18:20;;;;;;;0.08;0.08;;;;;;;11.51;40.66;98566.50;7362863;19;20010;-60
2023/03/08 10:20:47;;;;;;;0.00;0.00;;;;;;;11.72;40.00;98584.41;7358065;19;20014;-60
2023/03/08 10:23:21;;;;;;;0.00;0.00;;;;;;;11.87;41.00;98588.72;7361357;19;20169;-60
2023/03/08 10:25:48;;;;;;;0.00;0.00;;;;;;;11.92;39.25;98581.44;7362282;19;20010;-60
2023/03/08 10:28:19;;;;;;;0.08;0.08;;;;;;;12.10;38.68;98580.28;7340929;19;20018;-60
2023/03/08 10:30:48;;;;;;;0.00;0.00;;;;;;;12.20;38.64;98586.59;7361757;19;20011;-60
2023/03/08 10:33:16;;;;;;;0.10;0.10;;;;;;;12.23;37.66;98564.66;7356207;19;20022;-60
2023/03/08 10:36:08;;;;;;;0.00;0.00;;;;;;;12.50;39.84;98584.75;7361975;19;20030;-59
2023/03/08 10:38:35;;;;;;;0.00;0.00;;;;;;;12.54;37.83;98584.47;7360293;19;20006;-60
2023/03/08 10:41:13;;;;;;;0.03;0.03;;;;;;;12.59;36.71;98584.19;7360518;19;20027;-60
2023/03/08 10:43:44;;;;;;;0.00;0.00;;;;;;;12.75;37.14;98584.00;7361191;19;20002;-60
2023/03/08 10:46:16;;;;;;;0.03;0.03;;;;;;;12.81;37.24;98594.09;7363570;19;20014;-59
2023/03/08 10:48:42;;;;;;;0.00;0.00;;;;;;;12.85;36.74;98591.16;7362873;19;20011;-61
2023/03/08 10:51:21;;;;;;;0.00;0.00;;;;;;;13.01;38.91;98592.78;7358281;19;21330;-59
2023/03/08 10:53:53;;;;;;;0.03;0.03;;;;;;;13.11;36.91;98599.91;7359256;19;20347;-61
2023/03/08 10:56:50;;;;;;;0.00;0.00;;;;;;;13.22;39.12;98607.94;7362397;19;20094;-59
2023/03/08 10:59:20;;;;;;;0.00;0.00;;;;;;;13.22;35.78;98597.44;7259567;19;2004445;-61
2023/03/08 11:01:51;;;;;;;0.10;0.10;;;;;;;13.30;35.90;98594.31;7352691;19;20006;-59
2023/03/08 11:04:19;;;;;;;0.10;0.10;;;;;;;13.26;35.07;98578.91;7354758;19;20022;-61
2023/03/08 11:06:45;;;;;;;0.00;0.00;;;;;;;13.42;35.29;98603.13;7358864;19;20565;-61
2023/03/08 11:09:28;;;;;;;0.00;0.00;;;;;;;13.60;36.64;98603.69;7357633;19;20014;-59
2023/03/08 11:11:55;;;;;;;0.08;0.08;;;;;;;13.58;35.08;98579.31;7360940;19;20018;-61
2023/03/08 11:14:22;;;;;;;0.00;0.00;;;;;;;13.75;34.29;98595.59;7355647;19;20003;-61
2023/03/08 11:17:22;;;;;;;0.03;0.03;;;;;;;13.90;37.01;98588.44;7360226;19;20459;-59
2023/03/08 11:20:00;;;;;;;0.10;0.10;;;;;;;14.00;35.79;98588.63;7254035;19;2004349;-59
2023/03/08 11:22:49;;;;;;;0.00;0.00;;;;;;;14.10;35.87;98594.91;7357544;19;20784;-59
2023/03/08 11:25:47;;;;;;;0.10;0.10;;;;;;;14.19;36.81;98594.25;7360036;19;20416;-59
2023/03/08 11:29:02;;;;;;;0.00;0.00;;;;;;;14.16;37.68;98568.22;7254997;19;2004592;-59
2023/03/08 11:31:32;;;;;;;0.00;0.00;;;;;;;14.34;36.05;98586.22;7258403;19;2004544;-61
2023/03/08 11:34:19;;;;;;;0.00;0.00;;;;;;;14.42;35.76;98589.97;7357416;19;20014;-61
2023/03/08 11:36:49;;;;;;;0.00;0.00;;;;;;;14.52;35.42;98580.50;7355750;19;20025;-61
2023/03/08 11:39:20;;;;;;;0.00;0.00;;;;;;;14.60;35.54;98574.72;7362051;19;20022;-61
2023/03/08 11:42:11;;;;;;;0.00;0.00;;;;;;;14.73;36.75;98570.22;7357029;19;20983;-61
2023/03/08 11:44:45;;;;;;;0.00;0.00;;;;;;;14.82;34.95;98576.59;7353436;19;20006;-61
2023/03/08 11:47:23;;;;;;;0.03;0.03;;;;;;;14.98;36.64;98578.91;7359570;19;20988;-61